createdAt,value
2022-10-12T00:00:13.894Z,6.90
2022-10-12T00:02:41.113Z,6.90
2022-10-12T00:05:07.648Z,6.90
2022-10-12T00:07:34.213Z,6.90
2022-10-12T00:10:00.719Z,6.90
2022-10-12T00:12:27.355Z,6.90
2022-10-12T00:14:53.862Z,6.90
2022-10-12T00:17:20.427Z,6.90
2022-10-12T00:19:46.930Z,6.90
2022-10-12T00:22:13.539Z,6.90
2022-10-12T00:24:42.835Z,6.90
2022-10-12T00:27:09.591Z,6.80
2022-10-12T00:29:36.097Z,6.80
2022-10-12T00:32:02.609Z,6.80
2022-10-12T00:34:29.098Z,6.80
2022-10-12T00:36:55.633Z,6.70
2022-10-12T00:39:22.140Z,6.70
2022-10-12T00:41:48.745Z,6.70
2022-10-12T00:44:15.234Z,6.70
2022-10-12T00:46:41.734Z,6.70
2022-10-12T00:49:08.219Z,6.60
2022-10-12T00:51:34.755Z,6.60
2022-10-12T00:54:01.289Z,6.60
2022-10-12T00:56:27.839Z,6.60
2022-10-12T00:58:54.857Z,6.60
2022-10-12T01:01:21.417Z,6.70
2022-10-12T01:03:47.976Z,6.60
2022-10-12T01:06:14.563Z,6.70
2022-10-12T01:08:41.075Z,6.60
2022-10-12T01:11:07.634Z,6.70
2022-10-12T01:13:34.165Z,6.70
2022-10-12T01:16:00.784Z,6.70
2022-10-12T01:18:27.378Z,6.70
2022-10-12T01:20:53.896Z,6.70
2022-10-12T01:23:20.416Z,6.70
2022-10-12T01:25:47.076Z,6.70
2022-10-12T01:28:13.652Z,6.70
2022-10-12T01:30:41.061Z,6.70
2022-10-12T01:33:07.582Z,6.80
2022-10-12T01:35:34.096Z,6.70
2022-10-12T01:38:00.632Z,6.70
2022-10-12T01:40:27.143Z,6.70
2022-10-12T01:42:53.672Z,6.70
2022-10-12T01:45:20.557Z,6.70
2022-10-12T01:47:48.557Z,6.60
2022-10-12T01:50:15.242Z,6.60
2022-10-12T01:52:41.789Z,6.60
2022-10-12T01:55:08.406Z,6.60
2022-10-12T01:57:35.128Z,6.60
2022-10-12T02:00:02.059Z,6.60
2022-10-12T02:02:29.703Z,6.60
2022-10-12T02:04:56.295Z,6.60
2022-10-12T02:07:23.047Z,6.60
2022-10-12T02:09:49.539Z,6.60
2022-10-12T02:12:16.048Z,6.60
2022-10-12T02:14:42.530Z,6.60
2022-10-12T02:17:09.122Z,6.60
2022-10-12T02:19:35.676Z,6.60
2022-10-12T02:22:02.251Z,6.60
2022-10-12T02:24:28.881Z,6.60
2022-10-12T02:26:55.381Z,6.70
2022-10-12T02:29:21.895Z,6.70
2022-10-12T02:31:48.440Z,6.70
2022-10-12T02:34:14.956Z,6.70
2022-10-12T02:36:41.472Z,6.80
2022-10-12T02:39:07.951Z,6.70
2022-10-12T02:41:34.565Z,6.70
2022-10-12T02:44:01.163Z,6.70
2022-10-12T02:46:27.727Z,6.70
2022-10-12T02:48:54.261Z,6.60
2022-10-12T02:51:21.278Z,6.60
2022-10-12T02:53:47.804Z,6.70
2022-10-12T02:56:14.380Z,6.70
2022-10-12T02:58:40.894Z,6.70
2022-10-12T03:01:07.488Z,6.70
2022-10-12T03:03:34.035Z,6.70
2022-10-12T03:06:00.535Z,6.70
2022-10-12T03:08:27.143Z,6.60
2022-10-12T03:10:53.685Z,6.70
2022-10-12T03:13:20.229Z,6.60
2022-10-12T03:15:46.734Z,6.60
2022-10-12T03:18:13.251Z,6.60
2022-10-12T03:20:39.849Z,6.60
2022-10-12T03:23:06.442Z,6.60
2022-10-12T03:25:33.185Z,6.60
2022-10-12T03:28:00.119Z,6.60
2022-10-12T03:30:26.647Z,6.60
2022-10-12T03:32:53.170Z,6.60
2022-10-12T03:35:19.699Z,6.70
2022-10-12T03:37:46.212Z,6.60
2022-10-12T03:40:12.796Z,6.70
2022-10-12T03:42:39.318Z,6.70
2022-10-12T03:45:05.846Z,6.70
2022-10-12T03:47:32.368Z,6.70
2022-10-12T03:49:58.868Z,6.70
2022-10-12T03:52:25.368Z,6.70
2022-10-12T03:54:51.864Z,6.60
2022-10-12T03:57:18.399Z,6.60
2022-10-12T03:59:44.946Z,6.60
2022-10-12T04:02:16.564Z,6.60
2022-10-12T04:04:43.552Z,6.60
2022-10-12T04:07:10.166Z,6.60
2022-10-12T04:09:36.707Z,6.60
2022-10-12T04:12:03.197Z,6.70
2022-10-12T04:14:29.714Z,6.60
2022-10-12T04:16:56.265Z,6.60
2022-10-12T04:19:22.847Z,6.70
2022-10-12T04:21:49.392Z,6.70
2022-10-12T04:24:15.901Z,6.70
2022-10-12T04:26:42.470Z,6.80
2022-10-12T04:29:08.985Z,6.80
2022-10-12T04:31:35.553Z,6.80
2022-10-12T04:34:02.175Z,6.80
2022-10-12T04:36:28.712Z,6.70
2022-10-12T04:39:00.675Z,6.70
2022-10-12T04:41:27.648Z,6.70
2022-10-12T04:43:54.202Z,6.80
2022-10-12T04:46:20.751Z,6.80
2022-10-12T04:48:47.247Z,6.80
2022-10-12T04:51:13.799Z,6.80
2022-10-12T04:53:40.620Z,6.80
2022-10-12T04:56:07.273Z,6.80
2022-10-12T04:58:33.870Z,6.80
2022-10-12T05:01:00.354Z,6.80
2022-10-12T05:03:26.854Z,6.70
2022-10-12T05:05:53.413Z,6.70
2022-10-12T05:08:20.018Z,6.70
2022-10-12T05:10:47.078Z,6.80
2022-10-12T05:13:13.776Z,6.80
2022-10-12T05:15:40.373Z,6.80
2022-10-12T05:18:06.946Z,6.80
2022-10-12T05:20:33.460Z,6.80
2022-10-12T05:23:00.067Z,6.70
2022-10-12T05:25:29.199Z,6.80
2022-10-12T05:27:55.931Z,6.80
2022-10-12T05:30:22.485Z,6.80
2022-10-12T05:32:48.995Z,6.80
2022-10-12T05:35:15.614Z,6.80
2022-10-12T05:37:42.138Z,6.80
2022-10-12T05:40:08.649Z,6.80
2022-10-12T05:42:35.896Z,6.80
2022-10-12T05:45:02.702Z,6.80
2022-10-12T05:47:29.241Z,6.80
2022-10-12T05:49:55.726Z,6.80
2022-10-12T05:52:22.248Z,6.80
2022-10-12T05:54:49.397Z,6.80
2022-10-12T05:57:15.959Z,6.80
2022-10-12T05:59:42.574Z,6.80
2022-10-12T06:02:09.115Z,6.70
2022-10-12T06:04:35.711Z,6.70
2022-10-12T06:07:02.250Z,6.70
2022-10-12T06:09:28.841Z,6.60
2022-10-12T06:11:55.379Z,6.50
2022-10-12T06:14:21.892Z,6.60
2022-10-12T06:16:51.097Z,6.50
2022-10-12T06:19:20.958Z,6.60
2022-10-12T06:21:47.525Z,6.50
2022-10-12T06:24:14.042Z,6.60
2022-10-12T06:26:40.580Z,6.60
2022-10-12T06:29:07.448Z,6.60
2022-10-12T06:31:34.071Z,6.70
2022-10-12T06:34:00.556Z,6.70
2022-10-12T06:36:27.149Z,6.80
2022-10-12T06:38:53.721Z,6.80
2022-10-12T06:41:20.247Z,6.80
2022-10-12T06:43:46.736Z,6.80
2022-10-12T06:46:13.250Z,6.80
2022-10-12T06:48:39.766Z,6.80
2022-10-12T06:51:06.287Z,6.80
2022-10-12T06:53:34.853Z,6.90
2022-10-12T06:56:01.402Z,6.80
2022-10-12T06:58:27.945Z,6.90
2022-10-12T07:00:55.234Z,6.90
2022-10-12T07:03:21.812Z,7.00
2022-10-12T07:05:48.393Z,7.00
2022-10-12T07:08:14.885Z,7.10
2022-10-12T07:10:41.384Z,7.10
2022-10-12T07:13:07.969Z,7.20
2022-10-12T07:15:34.506Z,7.20
2022-10-12T07:18:01.021Z,7.30
2022-10-12T07:20:27.536Z,7.40
2022-10-12T07:22:54.126Z,7.50
2022-10-12T07:25:22.264Z,7.50
2022-10-12T07:27:48.899Z,7.60
2022-10-12T07:30:15.387Z,7.70
2022-10-12T07:32:42.641Z,7.90
2022-10-12T07:35:09.239Z,8.00
2022-10-12T07:37:35.830Z,8.10
2022-10-12T07:40:02.391Z,8.20
2022-10-12T07:42:29.156Z,8.30
2022-10-12T07:44:55.886Z,8.40
2022-10-12T07:47:22.519Z,8.50
2022-10-12T07:49:49.266Z,8.60
2022-10-12T07:52:15.862Z,8.70
2022-10-12T07:54:42.433Z,8.80
2022-10-12T07:57:08.956Z,8.80
2022-10-12T07:59:35.497Z,8.90
2022-10-12T08:02:02.083Z,9.00
2022-10-12T08:04:28.728Z,9.10
2022-10-12T08:06:55.510Z,9.10
2022-10-12T08:09:21.984Z,9.20
2022-10-12T08:11:48.494Z,9.20
2022-10-12T08:14:15.109Z,9.30
2022-10-12T08:16:41.660Z,9.20
2022-10-12T08:19:08.215Z,9.30
2022-10-12T08:21:34.751Z,9.40
2022-10-12T08:24:01.281Z,9.50
2022-10-12T08:26:29.129Z,9.60
2022-10-12T08:28:55.710Z,9.60
2022-10-12T08:31:22.354Z,9.70
2022-10-12T08:33:48.953Z,9.80
2022-10-12T08:36:15.482Z,9.80
2022-10-12T08:38:43.575Z,9.90
2022-10-12T08:41:10.084Z,10.00
2022-10-12T08:43:36.700Z,10.00
2022-10-12T08:46:03.196Z,10.10
2022-10-12T08:48:29.761Z,10.10
2022-10-12T08:53:24.320Z,10.20
2022-10-12T08:55:52.565Z,10.20
2022-10-12T08:58:20.606Z,10.30
2022-10-12T09:00:47.194Z,10.40
2022-10-12T09:03:13.790Z,10.50
2022-10-12T09:05:40.315Z,10.60
2022-10-12T09:08:06.888Z,10.70
2022-10-12T09:10:33.399Z,10.70
2022-10-12T09:12:59.949Z,10.90
2022-10-12T09:15:26.468Z,10.90
2022-10-12T09:17:53.205Z,11.00
2022-10-12T09:20:19.839Z,11.10
2022-10-12T09:22:46.412Z,11.10
2022-10-12T09:25:13.320Z,11.10
2022-10-12T09:27:44.955Z,11.20
2022-10-12T09:30:11.780Z,11.20
2022-10-12T09:32:38.299Z,11.30
2022-10-12T09:35:05.003Z,11.40
2022-10-12T09:37:31.547Z,11.40
2022-10-12T09:39:58.139Z,11.50
2022-10-12T09:42:24.781Z,11.60
2022-10-12T09:44:51.437Z,11.70
2022-10-12T09:47:18.037Z,11.90
2022-10-12T09:49:44.556Z,12.10
2022-10-12T09:52:11.118Z,12.20
2022-10-12T09:54:37.696Z,12.30
2022-10-12T09:57:04.241Z,12.50
2022-10-12T09:59:30.766Z,12.50
2022-10-12T10:01:57.424Z,12.60
2022-10-12T10:04:24.136Z,12.80
2022-10-12T10:06:50.873Z,12.90
2022-10-12T10:09:17.421Z,13.00
2022-10-12T10:11:43.936Z,13.00
2022-10-12T10:14:10.457Z,13.10
2022-10-12T10:16:36.977Z,13.20
2022-10-12T10:19:03.608Z,13.20
2022-10-12T10:21:30.215Z,13.40
2022-10-12T10:23:56.776Z,13.40
2022-10-12T10:26:24.015Z,13.60
2022-10-12T10:28:50.618Z,13.60
2022-10-12T10:31:17.283Z,13.60
2022-10-12T10:33:43.818Z,13.60
2022-10-12T10:36:10.322Z,13.80
2022-10-12T10:38:36.818Z,13.80
2022-10-12T10:41:03.348Z,13.70
2022-10-12T10:43:33.024Z,13.60
2022-10-12T10:45:59.574Z,13.80
2022-10-12T10:48:26.079Z,13.90
2022-10-12T10:50:52.717Z,14.00
2022-10-12T10:53:19.313Z,14.10
2022-10-12T10:55:45.911Z,14.00
2022-10-12T10:58:12.419Z,14.00
2022-10-12T11:00:40.449Z,14.00
2022-10-12T11:03:07.532Z,14.00
2022-10-12T11:05:34.335Z,14.00
2022-10-12T11:08:00.980Z,14.00
2022-10-12T11:10:28.179Z,14.00
2022-10-12T11:12:54.781Z,14.00
2022-10-12T11:15:21.388Z,14.10
2022-10-12T11:17:48.144Z,14.10
2022-10-12T11:20:19.486Z,14.10
2022-10-12T11:22:46.557Z,14.20
2022-10-12T11:25:13.205Z,14.50
2022-10-12T11:27:39.879Z,14.70
2022-10-12T11:30:10.057Z,14.70
2022-10-12T11:32:36.774Z,14.80
2022-10-12T11:35:03.593Z,14.80
2022-10-12T11:37:30.213Z,14.80
2022-10-12T11:39:56.895Z,14.90
2022-10-12T11:42:23.554Z,15.20
2022-10-12T11:44:50.159Z,15.40
2022-10-12T11:47:16.754Z,15.50
2022-10-12T11:49:43.348Z,15.50
2022-10-12T11:52:09.875Z,15.50
2022-10-12T11:54:36.602Z,15.60
2022-10-12T11:57:03.115Z,15.70
2022-10-12T11:59:29.781Z,15.90
2022-10-12T12:01:56.410Z,16.10
2022-10-12T12:04:41.096Z,16.10
2022-10-12T12:07:08.172Z,16.10
2022-10-12T12:09:34.783Z,16.10
2022-10-12T12:12:01.294Z,16.00
2022-10-12T12:14:27.858Z,16.10
2022-10-12T12:16:54.396Z,16.30
2022-10-12T12:19:21.037Z,16.40
2022-10-12T12:21:47.689Z,16.50
2022-10-12T12:24:14.342Z,16.60
2022-10-12T12:26:40.870Z,16.70
2022-10-12T12:29:07.421Z,16.80
2022-10-12T12:31:34.099Z,16.80
2022-10-12T12:34:00.773Z,16.80
2022-10-12T12:36:27.357Z,16.60
2022-10-12T12:38:53.975Z,16.50
2022-10-12T12:41:20.519Z,16.40
2022-10-12T12:43:47.075Z,16.10
2022-10-12T12:46:13.567Z,16.00
2022-10-12T12:48:40.213Z,15.80
2022-10-12T12:51:06.860Z,15.80
2022-10-12T12:53:33.453Z,15.70
2022-10-12T12:56:00.325Z,15.60
2022-10-12T12:58:26.943Z,15.50
2022-10-12T13:00:53.517Z,15.50
2022-10-12T13:03:20.096Z,15.50
2022-10-12T13:05:46.651Z,15.50
2022-10-12T13:08:13.175Z,15.50
2022-10-12T13:10:39.684Z,15.60
2022-10-12T13:13:06.225Z,15.70
2022-10-12T13:15:32.836Z,15.70
2022-10-12T13:17:59.564Z,15.70
2022-10-12T13:20:26.326Z,15.80
2022-10-12T13:22:53.085Z,15.90
2022-10-12T13:25:19.840Z,15.70
2022-10-12T13:27:46.508Z,15.80
2022-10-12T13:30:13.267Z,15.90
2022-10-12T13:32:39.910Z,15.90
2022-10-12T13:35:06.512Z,15.90
2022-10-12T13:37:33.387Z,16.00
2022-10-12T13:40:00.352Z,16.00
2022-10-12T13:42:26.925Z,15.90
2022-10-12T13:44:53.522Z,15.70
2022-10-12T13:47:19.999Z,15.70
2022-10-12T13:49:46.629Z,15.70
2022-10-12T13:52:13.197Z,15.70
2022-10-12T13:54:39.709Z,15.80
2022-10-12T13:57:06.279Z,15.60
2022-10-12T13:59:32.812Z,15.60
2022-10-12T14:02:06.208Z,15.40
2022-10-12T14:04:33.847Z,15.20
2022-10-12T14:07:01.037Z,14.90
2022-10-12T14:09:28.001Z,14.70
2022-10-12T14:11:54.544Z,14.60
2022-10-12T14:14:21.021Z,14.50
2022-10-12T14:16:47.574Z,14.50
2022-10-12T14:19:14.056Z,14.50
2022-10-12T14:21:40.595Z,14.50
2022-10-12T14:24:07.096Z,14.50
2022-10-12T14:26:33.597Z,14.50
2022-10-12T14:29:00.169Z,14.50
2022-10-12T14:31:26.692Z,14.50
2022-10-12T14:33:53.428Z,14.60
2022-10-12T14:36:20.002Z,14.60
2022-10-12T14:38:46.501Z,14.70
2022-10-12T14:41:13.029Z,14.70
2022-10-12T14:43:39.575Z,14.60
2022-10-12T14:46:06.097Z,14.60
2022-10-12T14:48:32.587Z,14.60
2022-10-12T14:50:59.141Z,14.50
2022-10-12T14:53:29.137Z,14.50
2022-10-12T14:55:55.723Z,14.70
2022-10-12T14:58:22.288Z,14.70
2022-10-12T15:00:49.100Z,14.80
2022-10-12T15:03:17.850Z,14.80
2022-10-12T15:05:44.377Z,14.80
2022-10-12T15:08:11.656Z,14.70
2022-10-12T15:10:39.487Z,14.60
2022-10-12T15:13:06.949Z,14.60
2022-10-12T15:15:34.150Z,14.60
2022-10-12T15:18:01.411Z,14.50
2022-10-12T15:20:28.737Z,14.50
2022-10-12T15:22:56.252Z,14.50
2022-10-12T15:25:24.057Z,14.50
2022-10-12T15:27:50.605Z,14.60
2022-10-12T15:30:17.172Z,14.60
2022-10-12T15:32:43.681Z,14.50
2022-10-12T15:35:10.201Z,14.50
2022-10-12T15:37:36.679Z,14.40
2022-10-12T15:40:03.165Z,14.40
2022-10-12T15:42:29.685Z,14.30
2022-10-12T15:44:56.172Z,14.30
2022-10-12T15:47:22.741Z,14.30
2022-10-12T15:49:49.226Z,14.40
2022-10-12T15:52:16.777Z,14.40
2022-10-12T15:54:46.812Z,14.40
2022-10-12T15:57:15.713Z,14.50
2022-10-12T15:59:42.543Z,14.40
2022-10-12T16:02:09.049Z,14.50
2022-10-12T16:04:35.523Z,14.40
2022-10-12T16:07:02.162Z,14.30
2022-10-12T16:09:28.679Z,14.20
2022-10-12T16:11:55.355Z,14.10
2022-10-12T16:14:23.288Z,14.10
2022-10-12T16:16:49.807Z,14.00
2022-10-12T16:19:16.367Z,14.00
2022-10-12T16:21:42.868Z,14.00
2022-10-12T16:24:09.430Z,13.90
2022-10-12T16:26:35.965Z,13.80
2022-10-12T16:29:02.459Z,13.80
2022-10-12T16:31:29.028Z,13.80
2022-10-12T16:33:55.524Z,13.70
2022-10-12T16:36:22.160Z,13.70
2022-10-12T16:38:48.660Z,13.70
2022-10-12T16:41:15.167Z,13.60
2022-10-12T16:43:41.667Z,13.70
2022-10-12T16:46:08.170Z,13.60
2022-10-12T16:48:34.832Z,13.60
2022-10-12T16:51:01.345Z,13.60
2022-10-12T16:53:27.840Z,13.60
2022-10-12T16:55:54.368Z,13.50
2022-10-12T16:58:20.950Z,13.40
2022-10-12T17:00:47.553Z,13.40
2022-10-12T17:03:14.290Z,13.30
2022-10-12T17:05:40.815Z,13.20
2022-10-12T17:08:10.136Z,13.10
2022-10-12T17:10:40.627Z,13.10
2022-10-12T17:13:07.216Z,13.00
2022-10-12T17:15:34.459Z,13.00
2022-10-12T17:18:02.095Z,13.00
2022-10-12T17:20:29.987Z,12.90
2022-10-12T17:22:57.263Z,12.90
2022-10-12T17:25:25.044Z,12.80
2022-10-12T17:27:52.183Z,12.70
2022-10-12T17:30:18.898Z,12.80
2022-10-12T17:32:45.417Z,12.70
2022-10-12T17:35:12.259Z,12.70
2022-10-12T17:37:38.790Z,12.70
2022-10-12T17:40:06.330Z,12.70
2022-10-12T17:42:32.832Z,12.60
2022-10-12T17:44:59.353Z,12.60
2022-10-12T17:47:25.859Z,12.50
2022-10-12T17:49:52.460Z,12.40
2022-10-12T17:52:19.417Z,12.40
2022-10-12T17:54:46.145Z,12.30
2022-10-12T17:57:12.698Z,12.20
2022-10-12T17:59:39.204Z,12.30
2022-10-12T18:02:09.324Z,12.20
2022-10-12T18:04:36.260Z,12.20
2022-10-12T18:07:03.045Z,12.20
2022-10-12T18:09:29.541Z,12.10
2022-10-12T18:11:56.204Z,12.10
2022-10-12T18:14:22.778Z,12.10
2022-10-12T18:16:49.272Z,12.00
2022-10-12T18:19:15.761Z,12.00
2022-10-12T18:21:42.324Z,12.00
2022-10-12T18:24:16.080Z,11.90
2022-10-12T18:26:43.119Z,11.90
2022-10-12T18:29:09.652Z,11.80
2022-10-12T18:31:36.144Z,11.90
2022-10-12T18:34:02.626Z,11.80
2022-10-12T18:36:29.174Z,11.80
2022-10-12T18:38:55.745Z,11.70
2022-10-12T18:41:22.425Z,11.70
2022-10-12T18:43:49.150Z,11.60
2022-10-12T18:46:16.877Z,11.60
2022-10-12T18:48:43.344Z,11.50
2022-10-12T18:51:10.351Z,11.50
2022-10-12T18:53:36.917Z,11.60
2022-10-12T18:56:03.612Z,11.50
2022-10-12T18:58:30.085Z,11.50
2022-10-12T19:00:56.609Z,11.50
2022-10-12T19:03:23.235Z,11.50
2022-10-12T19:05:49.883Z,11.50
2022-10-12T19:08:16.396Z,11.60
2022-10-12T19:10:42.894Z,11.50
2022-10-12T19:13:09.395Z,11.50
2022-10-12T19:15:36.018Z,11.60
2022-10-12T19:18:02.514Z,11.60
2022-10-12T19:20:29.094Z,11.70
2022-10-12T19:22:55.584Z,11.60
2022-10-12T19:25:22.111Z,11.60
2022-10-12T19:27:48.783Z,11.60
2022-10-12T19:30:15.445Z,11.50
2022-10-12T19:32:42.816Z,11.50
2022-10-12T19:35:09.346Z,11.50
2022-10-12T19:37:36.131Z,11.40
2022-10-12T19:40:07.400Z,11.40
2022-10-12T19:42:34.383Z,11.40
2022-10-12T19:45:02.821Z,11.30
2022-10-12T19:47:29.313Z,11.30
2022-10-12T19:49:55.969Z,11.20
2022-10-12T19:52:22.563Z,11.20
2022-10-12T19:54:49.077Z,11.20
2022-10-12T19:57:15.608Z,11.10
2022-10-12T19:59:42.086Z,11.00
2022-10-12T20:02:09.143Z,11.00
2022-10-12T20:04:35.767Z,10.90
2022-10-12T20:07:02.257Z,10.90
2022-10-12T20:09:30.565Z,10.80
2022-10-12T20:11:57.148Z,10.70
2022-10-12T20:14:23.613Z,10.70
2022-10-12T20:16:50.157Z,10.70
2022-10-12T20:19:16.682Z,10.70
2022-10-12T20:21:43.196Z,10.60
2022-10-12T20:24:09.857Z,10.60
2022-10-12T20:26:36.353Z,10.60
2022-10-12T20:29:02.950Z,10.60
2022-10-12T20:31:29.605Z,10.50
2022-10-12T20:33:57.691Z,10.50
2022-10-12T20:36:24.188Z,10.50
2022-10-12T20:38:50.664Z,10.50
2022-10-12T20:41:17.798Z,10.40
2022-10-12T20:43:44.375Z,10.40
2022-10-12T20:46:10.923Z,10.40
2022-10-12T20:48:39.608Z,10.30
2022-10-12T20:51:06.132Z,10.30
2022-10-12T20:53:33.981Z,10.30
2022-10-12T20:56:00.498Z,10.20
2022-10-12T20:58:27.989Z,10.20
2022-10-12T21:00:54.851Z,10.20
2022-10-12T21:03:21.408Z,10.20
2022-10-12T21:05:47.957Z,10.20
2022-10-12T21:08:14.431Z,10.20
2022-10-12T21:10:41.021Z,10.20
2022-10-12T21:13:07.513Z,10.10
2022-10-12T21:15:34.009Z,10.10
2022-10-12T21:18:00.520Z,10.10
2022-10-12T21:20:27.114Z,10.10
2022-10-12T21:22:53.613Z,10.10
2022-10-12T21:25:20.109Z,10.10
2022-10-12T21:27:46.658Z,10.00
2022-10-12T21:30:13.251Z,10.00
2022-10-12T21:32:39.729Z,10.00
2022-10-12T21:35:06.230Z,10.00
2022-10-12T21:37:32.745Z,10.00
2022-10-12T21:39:59.266Z,10.00
2022-10-12T21:42:25.861Z,10.00
2022-10-12T21:44:52.331Z,10.00
2022-10-12T21:47:18.850Z,10.00
2022-10-12T21:49:45.324Z,10.00
2022-10-12T21:52:11.839Z,10.00
2022-10-12T21:54:40.152Z,9.90
2022-10-12T21:57:06.669Z,9.90
2022-10-12T21:59:33.234Z,9.90
2022-10-12T22:01:59.735Z,9.90
2022-10-12T22:04:26.432Z,9.90
2022-10-12T22:06:56.039Z,9.90
2022-10-12T22:09:24.874Z,9.80
2022-10-12T22:11:51.379Z,9.80
2022-10-12T22:14:18.153Z,9.80
2022-10-12T22:16:44.733Z,9.80
2022-10-12T22:19:14.218Z,9.80
2022-10-12T22:21:40.739Z,9.80
2022-10-12T22:24:07.249Z,9.80
2022-10-12T22:26:35.071Z,9.70
2022-10-12T22:29:01.626Z,9.80
2022-10-12T22:31:28.126Z,9.80
2022-10-12T22:33:54.644Z,9.80
2022-10-12T22:36:21.142Z,9.80
2022-10-12T22:38:47.675Z,9.80
2022-10-12T22:41:14.198Z,9.80
2022-10-12T22:43:40.775Z,9.80
2022-10-12T22:46:07.296Z,9.80
2022-10-12T22:48:33.838Z,9.80
2022-10-12T22:51:00.333Z,9.80
2022-10-12T22:53:26.814Z,9.80
2022-10-12T22:55:53.347Z,9.80
2022-10-12T22:58:19.870Z,9.70
2022-10-12T23:00:46.376Z,9.70
2022-10-12T23:03:12.873Z,9.70
2022-10-12T23:05:39.353Z,9.70
2022-10-12T23:08:05.973Z,9.60
2022-10-12T23:10:32.466Z,9.60
2022-10-12T23:12:58.975Z,9.60
2022-10-12T23:15:25.520Z,9.60
2022-10-12T23:17:52.032Z,9.60
2022-10-12T23:20:18.817Z,9.50
2022-10-12T23:22:45.333Z,9.50
2022-10-12T23:25:11.812Z,9.50
2022-10-12T23:27:38.314Z,9.40
2022-10-12T23:30:05.150Z,9.40
2022-10-12T23:32:31.685Z,9.40
2022-10-12T23:34:58.216Z,9.40
2022-10-12T23:37:24.706Z,9.40
2022-10-12T23:39:51.327Z,9.40
2022-10-12T23:42:18.021Z,9.30
2022-10-12T23:44:44.720Z,9.30
2022-10-12T23:47:11.281Z,9.30
2022-10-12T23:49:37.812Z,9.30
2022-10-12T23:52:04.329Z,9.30
2022-10-12T23:54:30.793Z,9.20
2022-10-12T23:56:57.321Z,9.20
2022-10-12T23:59:23.793Z,9.30
